createdAt,value
2023-01-15T00:00:59.554Z,99.99
2023-01-15T00:01:59.525Z,99.99
2023-01-15T00:02:59.567Z,99.99
2023-01-15T00:03:59.583Z,99.99
2023-01-15T00:04:59.520Z,99.99
2023-01-15T00:05:59.485Z,99.99
2023-01-15T00:06:59.469Z,99.99
2023-01-15T00:07:59.449Z,99.99
2023-01-15T00:08:59.462Z,99.99
2023-01-15T00:09:59.431Z,99.99
2023-01-15T00:10:59.447Z,99.99
2023-01-15T00:11:59.411Z,99.99
2023-01-15T00:12:59.394Z,99.99
2023-01-15T00:13:59.381Z,99.99
2023-01-15T00:14:59.378Z,99.99
2023-01-15T00:15:59.424Z,99.99
2023-01-15T00:16:59.379Z,99.99
2023-01-15T00:17:59.341Z,99.99
2023-01-15T00:18:59.377Z,99.99
2023-01-15T00:19:59.334Z,99.99
2023-01-15T00:20:59.348Z,99.99
2023-01-15T00:21:59.305Z,99.99
2023-01-15T00:22:59.591Z,99.99
2023-01-15T00:23:59.297Z,99.99
2023-01-15T00:24:59.275Z,99.99
2023-01-15T00:25:59.279Z,99.99
2023-01-15T00:26:59.249Z,99.99
2023-01-15T00:28:01.610Z,99.99
2023-01-15T00:28:59.238Z,99.99
2023-01-15T00:29:59.213Z,99.99
2023-01-15T00:30:59.263Z,99.99
2023-01-15T00:31:59.199Z,99.99
2023-01-15T00:32:59.180Z,99.99
2023-01-15T00:33:59.169Z,99.99
2023-01-15T00:34:59.185Z,99.99
2023-01-15T00:35:59.191Z,99.99
2023-01-15T00:36:59.160Z,99.99
2023-01-15T00:37:59.120Z,99.99
2023-01-15T00:38:59.124Z,99.99
2023-01-15T00:39:59.100Z,99.99
2023-01-15T00:40:59.119Z,99.99
2023-01-15T00:41:59.085Z,99.99
2023-01-15T00:42:59.083Z,99.99
2023-01-15T00:43:59.052Z,99.99
2023-01-15T00:44:59.052Z,99.99
2023-01-15T00:45:59.333Z,99.99
2023-01-15T00:46:59.024Z,99.99
2023-01-15T00:47:59.011Z,99.99
2023-01-15T00:48:59.024Z,99.99
2023-01-15T00:49:59.025Z,99.99
2023-01-15T00:50:58.995Z,99.99
2023-01-15T00:51:59.803Z,99.99
2023-01-15T00:52:59.899Z,99.99
2023-01-15T00:53:58.948Z,99.99
2023-01-15T00:54:58.963Z,99.99
2023-01-15T00:55:58.926Z,99.99
2023-01-15T00:56:58.911Z,99.99
2023-01-15T00:57:58.918Z,99.99
2023-01-15T00:58:58.889Z,99.99
2023-01-15T00:59:58.883Z,99.99
2023-01-15T01:00:58.951Z,99.99
2023-01-15T01:01:59.018Z,99.99
2023-01-15T01:02:58.843Z,99.99
2023-01-15T01:03:58.846Z,99.99
2023-01-15T01:04:58.828Z,99.99
2023-01-15T01:05:58.831Z,99.99
2023-01-15T01:06:58.801Z,99.99
2023-01-15T01:07:58.792Z,99.99
2023-01-15T01:08:58.786Z,99.99
2023-01-15T01:09:58.790Z,99.99
2023-01-15T01:11:00.846Z,99.99
2023-01-15T01:11:58.769Z,99.99
2023-01-15T01:12:58.811Z,99.99
2023-01-15T01:13:58.734Z,99.99
2023-01-15T01:14:59.473Z,99.99
2023-01-15T01:15:59.685Z,99.99
2023-01-15T01:16:58.701Z,99.99
2023-01-15T01:17:58.712Z,99.99
2023-01-15T01:18:58.672Z,99.99
2023-01-15T01:19:58.675Z,99.99
2023-01-15T01:20:58.642Z,99.99
2023-01-15T01:21:58.641Z,99.99
2023-01-15T01:22:58.634Z,99.99
2023-01-15T01:23:58.650Z,99.99
2023-01-15T01:24:58.604Z,99.99
2023-01-15T01:25:58.592Z,99.99
2023-01-15T01:26:58.581Z,99.99
2023-01-15T01:27:58.584Z,99.99
2023-01-15T01:28:59.511Z,99.99
2023-01-15T01:29:58.585Z,99.99
2023-01-15T01:30:58.543Z,99.99
2023-01-15T01:31:58.532Z,99.99
2023-01-15T01:32:58.521Z,99.99
2023-01-15T01:33:58.542Z,99.99
2023-01-15T01:34:58.545Z,99.99
2023-01-15T01:35:58.493Z,99.99
2023-01-15T01:36:58.478Z,99.99
2023-01-15T01:37:58.474Z,99.99
2023-01-15T01:38:58.458Z,99.99
2023-01-15T01:39:58.452Z,99.99
2023-01-15T01:40:58.464Z,99.99
2023-01-15T01:41:58.420Z,99.99
2023-01-15T01:42:59.222Z,99.99
2023-01-15T01:43:58.393Z,99.99
2023-01-15T01:44:58.421Z,99.99
2023-01-15T01:45:58.402Z,99.99
2023-01-15T01:46:58.371Z,99.99
2023-01-15T01:47:58.352Z,99.99
2023-01-15T01:48:58.424Z,99.99
2023-01-15T01:49:58.352Z,99.99
2023-01-15T01:51:00.207Z,99.99
2023-01-15T01:51:58.306Z,99.99
2023-01-15T01:52:58.297Z,99.99
2023-01-15T01:53:58.289Z,99.99
2023-01-15T01:54:58.294Z,99.99
2023-01-15T01:55:58.288Z,99.99
2023-01-15T01:56:58.250Z,99.99
2023-01-15T01:57:58.232Z,99.99
2023-01-15T01:58:58.233Z,99.99
2023-01-15T01:59:58.254Z,99.99
2023-01-15T02:00:58.357Z,99.99
2023-01-15T02:01:58.270Z,99.99
2023-01-15T02:02:58.227Z,99.99
2023-01-15T02:03:58.165Z,99.99
2023-01-15T02:04:58.153Z,99.99
2023-01-15T02:05:58.184Z,99.99
2023-01-15T02:06:58.144Z,99.99
2023-01-15T02:07:58.142Z,99.99
2023-01-15T02:08:58.125Z,99.99
2023-01-15T02:09:58.100Z,99.99
2023-01-15T02:10:58.104Z,99.99
2023-01-15T02:11:58.092Z,99.99
2023-01-15T02:12:58.081Z,99.99
2023-01-15T02:13:58.076Z,99.99
2023-01-15T02:14:58.047Z,99.99
2023-01-15T02:15:59.282Z,99.99
2023-01-15T02:16:58.027Z,99.99
2023-01-15T02:17:58.041Z,99.99
2023-01-15T02:18:58.012Z,99.99
2023-01-15T02:19:58.014Z,99.99
2023-01-15T02:20:57.985Z,99.99
2023-01-15T02:22:19.001Z,99.99
2023-01-15T02:22:57.984Z,99.99
2023-01-15T02:23:57.957Z,99.99
2023-01-15T02:24:59.333Z,99.99
2023-01-15T02:25:57.945Z,99.99
2023-01-15T02:26:57.924Z,99.99
2023-01-15T02:27:57.921Z,99.99
2023-01-15T02:28:57.918Z,99.99
2023-01-15T02:29:57.897Z,99.99
2023-01-15T02:30:58.640Z,99.99
2023-01-15T02:31:57.874Z,99.99
2023-01-15T02:32:57.842Z,99.99
2023-01-15T02:33:57.862Z,99.99
2023-01-15T02:35:00.545Z,99.99
2023-01-15T02:35:57.833Z,99.99
2023-01-15T02:36:57.823Z,99.99
2023-01-15T02:37:57.796Z,99.79
2023-01-15T02:38:57.819Z,99.79
2023-01-15T02:39:57.915Z,99.90
2023-01-15T02:40:57.755Z,99.99
2023-01-15T02:41:57.752Z,99.99
2023-01-15T02:42:57.734Z,99.99
2023-01-15T02:43:57.723Z,99.99
2023-01-15T02:44:57.739Z,99.69
2023-01-15T02:45:58.605Z,99.58
2023-01-15T02:46:57.694Z,99.63
2023-01-15T02:47:57.681Z,99.38
2023-01-15T02:48:57.673Z,99.52
2023-01-15T02:49:57.652Z,99.73
2023-01-15T02:50:58.622Z,99.69
2023-01-15T02:51:57.645Z,99.73
2023-01-15T02:52:57.630Z,99.94
2023-01-15T02:53:57.615Z,99.99
2023-01-15T02:54:57.596Z,99.99
2023-01-15T02:55:57.585Z,99.99
2023-01-15T02:56:57.603Z,99.99
2023-01-15T02:57:57.585Z,99.99
2023-01-15T02:58:57.693Z,99.99
2023-01-15T02:59:57.543Z,99.99
2023-01-15T03:00:57.600Z,99.43
2023-01-15T03:01:57.634Z,98.66
2023-01-15T03:02:57.513Z,98.14
2023-01-15T03:03:57.523Z,98.03
2023-01-15T03:04:57.495Z,97.73
2023-01-15T03:05:57.476Z,97.73
2023-01-15T03:06:57.484Z,97.83
2023-01-15T03:07:57.475Z,97.63
2023-01-15T03:08:57.466Z,98.24
2023-01-15T03:09:57.443Z,97.94
2023-01-15T03:10:57.424Z,98.14
2023-01-15T03:11:57.443Z,98.55
2023-01-15T03:12:57.403Z,98.35
2023-01-15T03:13:57.392Z,97.94
2023-01-15T03:14:57.417Z,97.83
2023-01-15T03:15:57.377Z,97.83
2023-01-15T03:16:57.434Z,97.94
2023-01-15T03:17:57.346Z,97.63
2023-01-15T03:18:57.342Z,98.03
2023-01-15T03:19:57.351Z,97.83
2023-01-15T03:20:58.849Z,97.94
2023-01-15T03:21:57.303Z,98.03
2023-01-15T03:22:57.313Z,98.03
2023-01-15T03:23:57.276Z,97.94
2023-01-15T03:24:57.277Z,97.52
2023-01-15T03:25:57.283Z,97.83
2023-01-15T03:26:57.256Z,97.73
2023-01-15T03:27:57.234Z,97.73
2023-01-15T03:28:57.239Z,97.94
2023-01-15T03:29:57.217Z,97.42
2023-01-15T03:30:57.254Z,97.21
2023-01-15T03:31:57.195Z,97.63
2023-01-15T03:32:57.196Z,97.63
2023-01-15T03:33:57.178Z,97.31
2023-01-15T03:34:57.163Z,97.31
2023-01-15T03:35:57.145Z,97.01
2023-01-15T03:36:57.178Z,96.80
2023-01-15T03:37:57.126Z,97.42
2023-01-15T03:38:57.116Z,97.52
2023-01-15T03:39:57.099Z,97.42
2023-01-15T03:40:57.105Z,97.11
2023-01-15T03:41:57.103Z,97.11
2023-01-15T03:42:57.065Z,97.21
2023-01-15T03:43:57.057Z,97.21
2023-01-15T03:44:57.054Z,97.21
2023-01-15T03:45:57.059Z,97.31
2023-01-15T03:46:57.073Z,97.52
2023-01-15T03:47:57.017Z,97.52
2023-01-15T03:48:57.012Z,97.31
2023-01-15T03:49:56.994Z,97.52
2023-01-15T03:50:56.977Z,97.63
2023-01-15T03:51:56.967Z,97.52
2023-01-15T03:52:56.991Z,97.21
2023-01-15T03:53:57.004Z,97.11
2023-01-15T03:54:56.947Z,97.31
2023-01-15T03:55:56.933Z,96.70
2023-01-15T03:56:56.929Z,96.91
2023-01-15T03:57:56.898Z,96.91
2023-01-15T03:58:56.897Z,96.39
2023-01-15T03:59:56.912Z,96.70
2023-01-15T04:00:57.001Z,96.59
2023-01-15T04:01:56.991Z,96.70
2023-01-15T04:02:56.856Z,96.80
2023-01-15T04:03:56.915Z,96.80
2023-01-15T04:04:56.827Z,97.01
2023-01-15T04:05:56.835Z,96.70
2023-01-15T04:06:56.811Z,96.80
2023-01-15T04:07:56.802Z,97.01
2023-01-15T04:08:56.783Z,96.59
2023-01-15T04:09:56.787Z,96.49
2023-01-15T04:10:56.768Z,96.18
2023-01-15T04:11:56.754Z,96.39
2023-01-15T04:12:56.735Z,96.39
2023-01-15T04:13:56.724Z,96.28
2023-01-15T04:14:56.738Z,96.28
2023-01-15T04:15:56.768Z,96.18
2023-01-15T04:16:56.696Z,95.87
2023-01-15T04:17:56.688Z,95.77
2023-01-15T04:18:56.698Z,95.77
2023-01-15T04:19:56.658Z,95.98
2023-01-15T04:20:56.676Z,95.98
2023-01-15T04:21:56.635Z,96.08
2023-01-15T04:22:56.628Z,96.08
2023-01-15T04:23:56.615Z,96.08
2023-01-15T04:24:56.603Z,96.08
2023-01-15T04:25:56.601Z,95.77
2023-01-15T04:26:56.621Z,95.77
2023-01-15T04:27:56.579Z,95.77
2023-01-15T04:28:56.564Z,95.77
2023-01-15T04:29:56.582Z,95.15
2023-01-15T04:30:56.613Z,95.56
2023-01-15T04:31:56.526Z,95.87
2023-01-15T04:32:56.520Z,96.18
2023-01-15T04:33:56.500Z,96.08
2023-01-15T04:34:56.510Z,95.67
2023-01-15T04:35:56.489Z,95.25
2023-01-15T04:36:56.510Z,95.25
2023-01-15T04:37:56.461Z,95.36
2023-01-15T04:38:56.459Z,95.36
2023-01-15T04:39:56.451Z,95.15
2023-01-15T04:40:56.435Z,95.15
2023-01-15T04:41:56.413Z,94.84
2023-01-15T04:42:56.428Z,94.74
2023-01-15T04:43:56.396Z,95.05
2023-01-15T04:44:56.379Z,94.84
2023-01-15T04:45:56.436Z,95.46
2023-01-15T04:46:56.390Z,95.15
2023-01-15T04:47:56.369Z,94.84
2023-01-15T04:48:56.356Z,95.15
2023-01-15T04:49:56.348Z,95.05
2023-01-15T04:50:56.328Z,95.05
2023-01-15T04:51:56.309Z,95.56
2023-01-15T04:52:56.299Z,95.05
2023-01-15T04:53:56.283Z,94.84
2023-01-15T04:54:56.300Z,94.95
2023-01-15T04:55:56.257Z,94.74
2023-01-15T04:56:56.254Z,95.05
2023-01-15T04:57:56.244Z,94.64
2023-01-15T04:58:56.231Z,94.95
2023-01-15T04:59:56.232Z,94.84
2023-01-15T05:00:56.213Z,94.53
2023-01-15T05:02:04.671Z,95.05
2023-01-15T05:02:57.184Z,95.36
2023-01-15T05:03:56.168Z,95.46
2023-01-15T05:04:56.180Z,95.25
2023-01-15T05:05:56.158Z,95.25
2023-01-15T05:06:56.140Z,95.25
2023-01-15T05:07:56.132Z,94.95
2023-01-15T05:08:56.120Z,94.95
2023-01-15T05:09:56.129Z,95.46
2023-01-15T05:10:56.108Z,95.67
2023-01-15T05:11:56.099Z,95.67
2023-01-15T05:12:56.072Z,95.25
2023-01-15T05:13:56.059Z,95.05
2023-01-15T05:14:56.041Z,94.84
2023-01-15T05:15:56.166Z,95.05
2023-01-15T05:16:56.031Z,94.95
2023-01-15T05:17:56.038Z,95.25
2023-01-15T05:18:56.001Z,95.46
2023-01-15T05:19:55.999Z,95.36
2023-01-15T05:20:55.980Z,95.25
2023-01-15T05:21:55.997Z,95.46
2023-01-15T05:22:55.987Z,94.74
2023-01-15T05:23:55.954Z,94.64
2023-01-15T05:24:55.939Z,94.64
2023-01-15T05:25:55.929Z,94.74
2023-01-15T05:26:55.940Z,94.64
2023-01-15T05:27:55.902Z,94.53
2023-01-15T05:28:55.893Z,94.64
2023-01-15T05:29:55.882Z,94.02
2023-01-15T05:30:55.918Z,93.91
2023-01-15T05:31:55.901Z,94.12
2023-01-15T05:32:55.849Z,93.81
2023-01-15T05:33:55.863Z,93.81
2023-01-15T05:34:55.845Z,93.91
2023-01-15T05:35:55.826Z,94.02
2023-01-15T05:36:55.804Z,94.02
2023-01-15T05:37:55.812Z,94.23
2023-01-15T05:38:55.791Z,94.12
2023-01-15T05:39:55.789Z,94.53
2023-01-15T05:40:55.784Z,94.64
2023-01-15T05:41:55.753Z,94.53
2023-01-15T05:42:55.739Z,94.43
2023-01-15T05:43:55.767Z,94.43
2023-01-15T05:44:55.766Z,94.12
2023-01-15T05:45:55.718Z,94.32
2023-01-15T05:46:55.705Z,94.64
2023-01-15T05:47:55.691Z,94.74
2023-01-15T05:48:55.681Z,94.74
2023-01-15T05:49:55.682Z,94.64
2023-01-15T05:50:55.670Z,94.74
2023-01-15T05:51:55.657Z,94.84
2023-01-15T05:52:55.635Z,94.84
2023-01-15T05:53:55.653Z,95.05
2023-01-15T05:54:55.612Z,94.84
2023-01-15T05:55:55.622Z,94.84
2023-01-15T05:56:55.599Z,95.36
2023-01-15T05:57:55.581Z,95.25
2023-01-15T05:58:55.562Z,95.56
2023-01-15T05:59:55.552Z,95.15
2023-01-15T06:00:55.562Z,95.15
2023-01-15T06:01:55.551Z,95.67
2023-01-15T06:02:55.534Z,95.87
2023-01-15T06:03:55.548Z,95.67
2023-01-15T06:04:55.501Z,95.98
2023-01-15T06:05:55.514Z,95.36
2023-01-15T06:06:55.483Z,95.36
2023-01-15T06:07:55.472Z,95.05
2023-01-15T06:08:55.452Z,94.84
2023-01-15T06:09:55.449Z,94.95
2023-01-15T06:10:55.432Z,94.84
2023-01-15T06:11:55.455Z,94.84
2023-01-15T06:12:55.406Z,94.95
2023-01-15T06:13:55.412Z,95.36
2023-01-15T06:14:55.382Z,95.46
2023-01-15T06:15:55.428Z,95.46
2023-01-15T06:16:55.363Z,95.87
2023-01-15T06:17:55.381Z,95.67
2023-01-15T06:18:55.358Z,95.46
2023-01-15T06:19:55.324Z,95.25
2023-01-15T06:20:55.317Z,95.25
2023-01-15T06:21:55.311Z,95.46
2023-01-15T06:22:55.327Z,95.77
2023-01-15T06:23:55.284Z,95.67
2023-01-15T06:24:55.275Z,95.15
2023-01-15T06:25:55.272Z,95.36
2023-01-15T06:26:55.246Z,95.46
2023-01-15T06:27:55.277Z,95.25
2023-01-15T06:28:55.237Z,95.56
2023-01-15T06:29:55.222Z,95.67
2023-01-15T06:30:55.211Z,95.77
2023-01-15T06:31:55.195Z,95.56
2023-01-15T06:32:55.192Z,95.25
2023-01-15T06:33:55.229Z,94.64
2023-01-15T06:34:55.177Z,94.53
2023-01-15T06:35:55.163Z,94.95
2023-01-15T06:36:55.147Z,94.53
2023-01-15T06:37:55.138Z,94.74
2023-01-15T06:38:55.120Z,94.53
2023-01-15T06:39:55.137Z,94.53
2023-01-15T06:40:55.100Z,94.53
2023-01-15T06:41:55.085Z,94.74
2023-01-15T06:42:55.075Z,94.43
2023-01-15T06:43:55.072Z,94.53
2023-01-15T06:44:55.075Z,94.53
2023-01-15T06:45:55.045Z,94.64
2023-01-15T06:46:55.057Z,94.84
2023-01-15T06:47:55.045Z,94.74
2023-01-15T06:48:55.017Z,94.95
2023-01-15T06:49:55.031Z,94.95
2023-01-15T06:50:54.989Z,94.32
2023-01-15T06:51:54.985Z,94.64
2023-01-15T06:52:54.976Z,94.74
2023-01-15T06:53:54.954Z,94.43
2023-01-15T06:54:55.036Z,94.64
2023-01-15T06:55:54.957Z,94.43
2023-01-15T06:56:54.923Z,94.32
2023-01-15T06:57:54.925Z,94.43
2023-01-15T06:58:54.897Z,94.08
2023-01-15T06:59:54.892Z,93.66
2023-01-15T07:00:55.014Z,93.77
2023-01-15T07:01:54.931Z,93.77
2023-01-15T07:02:54.859Z,94.28
2023-01-15T07:03:54.913Z,94.08
2023-01-15T07:04:54.844Z,94.18
2023-01-15T07:05:54.827Z,94.08
2023-01-15T07:06:54.835Z,93.56
2023-01-15T07:07:54.806Z,92.94
2023-01-15T07:08:54.794Z,93.05
2023-01-15T07:09:54.791Z,93.66
2023-01-15T07:10:54.791Z,93.35
2023-01-15T07:11:54.767Z,93.25
2023-01-15T07:12:54.750Z,93.35
2023-01-15T07:13:54.734Z,93.25
2023-01-15T07:14:54.728Z,93.15
2023-01-15T07:15:54.744Z,93.15
2023-01-15T07:16:54.738Z,93.15
2023-01-15T07:17:54.696Z,93.15
2023-01-15T07:18:54.678Z,93.05
2023-01-15T07:19:54.688Z,92.33
2023-01-15T07:20:54.660Z,92.12
2023-01-15T07:21:54.679Z,92.53
2023-01-15T07:22:54.636Z,93.15
2023-01-15T07:23:54.638Z,93.15
2023-01-15T07:24:54.619Z,92.84
2023-01-15T07:25:54.606Z,92.74
2023-01-15T07:26:54.608Z,92.94
2023-01-15T07:27:54.606Z,92.43
2023-01-15T07:28:54.568Z,92.43
2023-01-15T07:29:54.561Z,92.12
2023-01-15T07:30:54.545Z,92.02
2023-01-15T07:31:54.544Z,92.22
2023-01-15T07:32:54.556Z,92.02
2023-01-15T07:33:54.516Z,92.12
2023-01-15T07:34:54.506Z,92.02
2023-01-15T07:35:54.499Z,91.91
2023-01-15T07:36:54.487Z,92.02
2023-01-15T07:37:54.480Z,91.91
2023-01-15T07:38:54.497Z,91.71
2023-01-15T07:39:54.445Z,91.91
2023-01-15T07:40:54.436Z,91.91
2023-01-15T07:41:54.427Z,92.12
2023-01-15T07:42:54.413Z,91.81
2023-01-15T07:43:54.406Z,91.40
2023-01-15T07:44:54.429Z,91.71
2023-01-15T07:45:54.458Z,91.09
2023-01-15T07:46:54.367Z,91.40
2023-01-15T07:47:54.358Z,90.88
2023-01-15T07:48:54.349Z,90.47
2023-01-15T07:49:54.341Z,89.95
2023-01-15T07:50:54.356Z,90.26
2023-01-15T07:51:54.320Z,90.47
2023-01-15T07:52:54.311Z,90.47
2023-01-15T07:53:54.288Z,91.09
2023-01-15T07:54:54.285Z,90.88
2023-01-15T07:55:54.296Z,89.95
2023-01-15T07:56:54.257Z,89.95
2023-01-15T07:57:54.257Z,90.26
2023-01-15T07:58:54.278Z,89.75
2023-01-15T07:59:54.225Z,90.06
2023-01-15T08:00:54.274Z,90.06
2023-01-15T08:01:54.352Z,89.95
2023-01-15T08:02:54.202Z,89.54
2023-01-15T08:03:54.224Z,89.95
2023-01-15T08:04:54.188Z,90.06
2023-01-15T08:05:56.737Z,89.85
2023-01-15T08:06:54.148Z,90.06
2023-01-15T08:07:54.170Z,90.37
2023-01-15T08:08:54.136Z,90.51
2023-01-15T08:09:54.120Z,89.89
2023-01-15T08:10:54.108Z,89.89
2023-01-15T08:11:54.100Z,89.54
2023-01-15T08:12:57.020Z,89.23
2023-01-15T08:13:54.106Z,89.75
2023-01-15T08:14:54.070Z,89.54
2023-01-15T08:15:54.057Z,89.44
2023-01-15T08:16:54.038Z,89.44
2023-01-15T08:17:54.040Z,89.03
2023-01-15T08:18:54.040Z,89.34
2023-01-15T08:19:54.006Z,90.61
2023-01-15T08:20:54.066Z,92.21
2023-01-15T08:21:53.981Z,92.51
2023-01-15T08:22:53.979Z,92.76
2023-01-15T08:23:53.990Z,93.28
2023-01-15T08:24:53.950Z,93.90
2023-01-15T08:25:53.970Z,94.42
2023-01-15T08:26:53.928Z,94.93
2023-01-15T08:27:53.979Z,94.72
2023-01-15T08:28:53.912Z,94.62
2023-01-15T08:29:53.900Z,94.93
2023-01-15T08:30:53.917Z,95.14
2023-01-15T08:31:53.906Z,95.45
2023-01-15T08:32:53.858Z,95.45
2023-01-15T08:33:54.011Z,95.86
2023-01-15T08:34:54.144Z,95.86
2023-01-15T08:35:53.941Z,95.14
2023-01-15T08:36:53.931Z,95.03
2023-01-15T08:37:53.851Z,94.82
2023-01-15T08:38:54.000Z,94.72
2023-01-15T08:39:54.679Z,92.72
2023-01-15T08:40:54.563Z,91.58
2023-01-15T08:41:54.598Z,90.86
2023-01-15T08:42:56.414Z,90.61
2023-01-15T08:43:54.551Z,90.31
2023-01-15T08:44:53.949Z,90.51
2023-01-15T08:45:53.892Z,90.20
2023-01-15T08:46:54.043Z,90.10
2023-01-15T08:47:53.919Z,90.31
2023-01-15T08:48:53.883Z,89.38
2023-01-15T08:49:55.300Z,88.86
2023-01-15T08:50:53.899Z,89.48
2023-01-15T08:51:53.774Z,89.48
2023-01-15T08:52:54.382Z,89.17
2023-01-15T08:53:53.990Z,89.89
2023-01-15T08:54:56.149Z,89.48
2023-01-15T08:55:53.679Z,89.17
2023-01-15T08:56:53.731Z,88.76
2023-01-15T08:57:53.725Z,89.58
2023-01-15T08:58:53.677Z,89.07
2023-01-15T08:59:53.783Z,89.17
2023-01-15T09:00:53.635Z,88.96
2023-01-15T09:01:53.960Z,88.86
2023-01-15T09:02:53.956Z,88.96
2023-01-15T09:03:53.627Z,89.07
2023-01-15T09:04:53.671Z,88.76
2023-01-15T09:05:53.555Z,89.07
2023-01-15T09:06:53.548Z,88.86
2023-01-15T09:07:53.542Z,88.86
2023-01-15T09:08:53.501Z,89.07
2023-01-15T09:09:53.533Z,88.65
2023-01-15T09:10:53.479Z,89.17
2023-01-15T09:11:53.536Z,89.07
2023-01-15T09:12:53.571Z,88.56
2023-01-15T09:13:53.411Z,88.56
2023-01-15T09:14:57.799Z,88.56
2023-01-15T09:15:54.603Z,88.56
2023-01-15T09:16:53.446Z,88.45
2023-01-15T09:17:53.430Z,88.24
2023-01-15T09:18:53.532Z,88.24
2023-01-15T09:19:53.861Z,88.04
2023-01-15T09:20:53.776Z,87.63
2023-01-15T09:21:54.266Z,87.63
2023-01-15T09:22:53.701Z,87.73
2023-01-15T09:23:53.513Z,87.07
2023-01-15T09:24:53.341Z,86.87
2023-01-15T09:25:53.320Z,86.66
2023-01-15T09:26:53.316Z,86.15
2023-01-15T09:27:53.352Z,85.38
2023-01-15T09:28:53.331Z,84.97
2023-01-15T09:29:53.766Z,83.32
2023-01-15T09:30:53.392Z,82.97
2023-01-15T09:31:53.323Z,83.22
2023-01-15T09:32:53.445Z,83.39
2023-01-15T09:33:53.273Z,82.67
2023-01-15T09:34:53.354Z,81.97
2023-01-15T09:35:53.555Z,81.11
2023-01-15T09:36:53.433Z,81.32
2023-01-15T09:37:53.811Z,80.70
2023-01-15T09:38:53.194Z,80.91
2023-01-15T09:39:53.243Z,80.74
2023-01-15T09:40:53.292Z,80.33
2023-01-15T09:41:53.321Z,80.60
2023-01-15T09:42:53.133Z,78.75
2023-01-15T09:43:53.168Z,77.72
2023-01-15T09:44:53.089Z,77.34
2023-01-15T09:45:53.109Z,78.27
2023-01-15T09:46:53.054Z,78.44
2023-01-15T09:47:53.092Z,78.58
2023-01-15T09:48:53.020Z,79.40
2023-01-15T09:49:53.051Z,79.19
2023-01-15T09:50:53.015Z,79.13
2023-01-15T09:51:53.014Z,79.33
2023-01-15T09:52:52.981Z,79.03
2023-01-15T09:53:52.981Z,79.40
2023-01-15T09:54:52.993Z,79.30
2023-01-15T09:55:52.993Z,79.30
2023-01-15T09:56:52.980Z,79.50
2023-01-15T09:57:52.942Z,79.29
2023-01-15T09:58:52.974Z,77.37
2023-01-15T09:59:52.916Z,77.92
2023-01-15T10:00:53.113Z,77.51
2023-01-15T10:01:52.952Z,77.51
2023-01-15T10:02:53.022Z,78.20
2023-01-15T10:03:53.135Z,76.14
2023-01-15T10:04:52.854Z,75.59
2023-01-15T10:05:53.113Z,74.57
2023-01-15T10:06:52.853Z,73.98
2023-01-15T10:07:52.985Z,73.98
2023-01-15T10:08:52.812Z,74.80
2023-01-15T10:09:52.831Z,75.35
2023-01-15T10:10:52.793Z,75.97
2023-01-15T10:11:52.945Z,77.13
2023-01-15T10:12:52.794Z,77.23
2023-01-15T10:13:52.757Z,76.97
2023-01-15T10:14:52.745Z,77.37
2023-01-15T10:15:52.795Z,77.89
2023-01-15T10:16:52.737Z,78.92
2023-01-15T10:17:52.725Z,77.48
2023-01-15T10:18:52.732Z,77.51
2023-01-15T10:19:52.688Z,78.96
2023-01-15T10:20:52.686Z,78.54
2023-01-15T10:21:52.665Z,78.54
2023-01-15T10:22:52.677Z,77.72
2023-01-15T10:23:52.646Z,77.92
2023-01-15T10:24:52.657Z,77.51
2023-01-15T10:25:52.628Z,76.79
2023-01-15T10:26:52.644Z,77.03
2023-01-15T10:27:52.612Z,78.06
2023-01-15T10:28:52.618Z,77.55
2023-01-15T10:29:52.587Z,77.96
2023-01-15T10:30:52.599Z,77.55
2023-01-15T10:31:52.555Z,77.24
2023-01-15T10:33:01.851Z,77.34
2023-01-15T10:33:53.556Z,77.75
2023-01-15T10:34:52.523Z,77.51
2023-01-15T10:35:52.535Z,77.45
2023-01-15T10:36:52.508Z,77.86
2023-01-15T10:37:52.500Z,77.99
2023-01-15T10:38:52.487Z,75.42
2023-01-15T10:39:52.473Z,71.49
2023-01-15T10:40:52.477Z,70.67
2023-01-15T10:41:52.448Z,69.92
2023-01-15T10:42:52.444Z,72.41
2023-01-15T10:43:52.456Z,74.63
2023-01-15T10:44:52.444Z,74.94
2023-01-15T10:45:52.458Z,76.42
2023-01-15T10:46:54.640Z,76.97
2023-01-15T10:47:52.380Z,78.30
2023-01-15T10:48:52.376Z,76.93
2023-01-15T10:49:52.361Z,75.38
2023-01-15T10:50:52.387Z,76.28
2023-01-15T10:51:52.336Z,75.76
2023-01-15T10:52:52.328Z,73.64
2023-01-15T10:53:52.314Z,74.29
2023-01-15T10:54:52.310Z,73.64
2023-01-15T10:55:52.318Z,72.61
2023-01-15T10:56:52.291Z,74.74
2023-01-15T10:58:01.892Z,76.51
2023-01-15T10:58:53.269Z,76.45
2023-01-15T10:59:52.247Z,76.97
2023-01-15T11:00:52.240Z,77.20
2023-01-15T11:01:52.343Z,78.64
2023-01-15T11:02:52.285Z,78.03
2023-01-15T11:03:52.222Z,77.51
2023-01-15T11:04:52.190Z,77.10
2023-01-15T11:05:52.179Z,75.49
2023-01-15T11:06:52.197Z,75.01
2023-01-15T11:08:26.322Z,75.66
2023-01-15T11:09:11.146Z,76.62
2023-01-15T11:09:53.159Z,74.39
2023-01-15T11:10:52.128Z,72.96
2023-01-15T11:11:52.109Z,73.36
2023-01-15T11:12:52.107Z,74.43
2023-01-15T11:13:52.109Z,75.29
2023-01-15T11:14:52.082Z,76.45
2023-01-15T11:15:52.118Z,73.33
2023-01-15T11:16:52.070Z,73.06
2023-01-15T11:17:52.081Z,72.27
2023-01-15T11:18:52.071Z,73.57
2023-01-15T11:19:52.027Z,74.87
2023-01-15T11:20:52.300Z,75.70
2023-01-15T11:21:52.009Z,75.93
2023-01-15T11:22:51.999Z,73.98
2023-01-15T11:23:52.006Z,73.54
2023-01-15T11:24:51.980Z,73.50
2023-01-15T11:25:51.990Z,74.77
2023-01-15T11:26:51.949Z,75.42
2023-01-15T11:27:51.938Z,76.25
2023-01-15T11:28:51.932Z,76.90
2023-01-15T11:29:51.940Z,77.72
2023-01-15T11:30:51.936Z,76.90
2023-01-15T11:31:51.891Z,77.00
2023-01-15T11:32:51.879Z,77.00
2023-01-15T11:33:51.871Z,77.10
2023-01-15T11:34:51.880Z,77.41
2023-01-15T11:35:51.858Z,77.51
2023-01-15T11:36:51.848Z,77.00
2023-01-15T11:37:51.829Z,76.90
2023-01-15T11:38:51.821Z,76.69
2023-01-15T11:39:51.834Z,77.51
2023-01-15T11:40:53.492Z,77.62
2023-01-15T11:41:51.781Z,77.92
2023-01-15T11:42:51.773Z,77.51
2023-01-15T11:43:51.761Z,77.31
2023-01-15T11:44:51.758Z,77.34
2023-01-15T11:45:51.777Z,77.20
2023-01-15T11:46:51.744Z,77.31
2023-01-15T11:47:51.718Z,76.51
2023-01-15T11:48:51.712Z,75.15
2023-01-15T11:49:51.722Z,74.29
2023-01-15T11:50:51.683Z,75.59
2023-01-15T11:51:51.683Z,74.66
2023-01-15T11:52:51.680Z,73.98
2023-01-15T11:53:51.722Z,75.21
2023-01-15T11:54:51.648Z,75.11
2023-01-15T11:55:51.636Z,75.66
2023-01-15T11:56:51.622Z,74.80
2023-01-15T11:57:51.625Z,73.81
2023-01-15T11:58:51.632Z,74.70
2023-01-15T11:59:51.653Z,73.57
2023-01-15T12:00:51.582Z,73.91
2023-01-15T12:01:51.569Z,73.64
2023-01-15T12:02:51.562Z,74.29
2023-01-15T12:03:51.635Z,74.91
2023-01-15T12:04:51.623Z,75.21
2023-01-15T12:05:51.530Z,75.49
2023-01-15T12:06:51.535Z,75.01
2023-01-15T12:07:51.492Z,74.60
2023-01-15T12:08:51.556Z,75.32
2023-01-15T12:09:51.487Z,75.63
2023-01-15T12:10:51.471Z,76.04
2023-01-15T12:11:51.495Z,75.12
2023-01-15T12:12:51.457Z,75.83
2023-01-15T12:13:51.432Z,76.45
2023-01-15T12:14:51.423Z,76.48
2023-01-15T12:15:51.457Z,76.48
2023-01-15T12:16:51.402Z,75.56
2023-01-15T12:17:51.413Z,75.56
2023-01-15T12:18:51.383Z,75.76
2023-01-15T12:19:51.372Z,76.18
2023-01-15T12:20:51.366Z,76.18
2023-01-15T12:21:51.365Z,76.59
2023-01-15T12:22:51.356Z,76.18
2023-01-15T12:23:51.323Z,75.97
2023-01-15T12:24:51.308Z,75.67
2023-01-15T12:25:51.305Z,75.97
2023-01-15T12:26:51.297Z,76.07
2023-01-15T12:27:51.305Z,76.28
2023-01-15T12:28:51.276Z,76.38
2023-01-15T12:29:51.264Z,76.90
2023-01-15T12:30:51.245Z,76.28
2023-01-15T12:31:51.253Z,76.38
2023-01-15T12:32:51.224Z,76.48
2023-01-15T12:33:51.241Z,76.59
2023-01-15T12:34:51.209Z,76.48
2023-01-15T12:35:51.195Z,76.79
2023-01-15T12:36:51.224Z,76.79
2023-01-15T12:37:51.176Z,76.90
2023-01-15T12:38:51.195Z,77.20
2023-01-15T12:39:51.147Z,77.62
2023-01-15T12:40:51.144Z,76.69
2023-01-15T12:41:51.144Z,77.51
2023-01-15T12:42:51.127Z,77.31
2023-01-15T12:43:51.129Z,76.69
2023-01-15T12:44:51.101Z,76.79
2023-01-15T12:45:51.088Z,77.41
2023-01-15T12:46:51.081Z,77.00
2023-01-15T12:47:51.080Z,76.90
2023-01-15T12:48:51.061Z,77.17
2023-01-15T12:49:51.065Z,76.10
2023-01-15T12:50:51.039Z,75.29
2023-01-15T12:51:53.067Z,75.73
2023-01-15T12:52:51.009Z,75.52